sensor_id;sensor_type;location;lat;lon;timestamp;temperature;humidity
12769;DHT22;6448;48.916;8.990;2024-03-02T00:00:59;12.50;57.80
12769;DHT22;6448;48.916;8.990;2024-03-02T00:02:00;12.50;57.80
12769;DHT22;6448;48.916;8.990;2024-03-02T00:03:02;12.50;57.80
12769;DHT22;6448;48.916;8.990;2024-03-02T00:04:04;12.50;57.70
12769;DHT22;6448;48.916;8.990;2024-03-02T00:05:07;12.50;57.60
12769;DHT22;6448;48.916;8.990;2024-03-02T00:06:08;12.50;57.60
12769;DHT22;6448;48.916;8.990;2024-03-02T00:07:10;12.50;57.50
12769;DHT22;6448;48.916;8.990;2024-03-02T00:08:22;12.50;57.50
12769;DHT22;6448;48.916;8.990;2024-03-02T00:09:24;12.50;57.50
12769;DHT22;6448;48.916;8.990;2024-03-02T00:10:27;12.50;57.50
12769;DHT22;6448;48.916;8.990;2024-03-02T00:11:30;12.50;57.40
12769;DHT22;6448;48.916;8.990;2024-03-02T00:12:35;12.50;57.40
12769;DHT22;6448;48.916;8.990;2024-03-02T00:13:37;12.50;57.40
12769;DHT22;6448;48.916;8.990;2024-03-02T00:14:37;12.50;57.50
12769;DHT22;6448;48.916;8.990;2024-03-02T00:15:46;12.40;57.50
12769;DHT22;6448;48.916;8.990;2024-03-02T00:16:47;12.50;57.50
12769;DHT22;6448;48.916;8.990;2024-03-02T00:17:52;12.40;57.50
12769;DHT22;6448;48.916;8.990;2024-03-02T00:18:53;12.40;57.50
12769;DHT22;6448;48.916;8.990;2024-03-02T00:19:55;12.40;57.40
12769;DHT22;6448;48.916;8.990;2024-03-02T00:20:56;12.40;57.30
12769;DHT22;6448;48.916;8.990;2024-03-02T00:22:00;12.40;57.40
12769;DHT22;6448;48.916;8.990;2024-03-02T00:23:04;12.40;57.30
12769;DHT22;6448;48.916;8.990;2024-03-02T00:24:18;12.40;57.30
12769;DHT22;6448;48.916;8.990;2024-03-02T00:25:21;12.40;57.30
12769;DHT22;6448;48.916;8.990;2024-03-02T00:26:22;12.40;57.30
12769;DHT22;6448;48.916;8.990;2024-03-02T00:27:24;12.30;57.30
12769;DHT22;6448;48.916;8.990;2024-03-02T00:28:26;12.30;57.40
12769;DHT22;6448;48.916;8.990;2024-03-02T00:29:28;12.30;57.50
12769;DHT22;6448;48.916;8.990;2024-03-02T00:30:46;12.30;57.60
12769;DHT22;6448;48.916;8.990;2024-03-02T00:31:51;12.30;57.70
12769;DHT22;6448;48.916;8.990;2024-03-02T00:32:54;12.30;57.60
12769;DHT22;6448;48.916;8.990;2024-03-02T00:33:55;12.30;57.60
12769;DHT22;6448;48.916;8.990;2024-03-02T00:34:57;12.30;57.70
12769;DHT22;6448;48.916;8.990;2024-03-02T00:35:57;12.30;57.70
12769;DHT22;6448;48.916;8.990;2024-03-02T00:37:00;12.30;57.70
12769;DHT22;6448;48.916;8.990;2024-03-02T00:38:04;12.20;57.60
12769;DHT22;6448;48.916;8.990;2024-03-02T00:39:05;12.30;57.60
12769;DHT22;6448;48.916;8.990;2024-03-02T00:40:11;12.40;57.60
12769;DHT22;6448;48.916;8.990;2024-03-02T00:41:21;12.20;57.40
12769;DHT22;6448;48.916;8.990;2024-03-02T00:42:23;12.30;57.50
12769;DHT22;6448;48.916;8.990;2024-03-02T00:43:45;12.20;57.50
12769;DHT22;6448;48.916;8.990;2024-03-02T00:44:48;12.20;57.50
12769;DHT22;6448;48.916;8.990;2024-03-02T00:45:49;12.20;57.40
12769;DHT22;6448;48.916;8.990;2024-03-02T00:46:50;12.20;57.40
12769;DHT22;6448;48.916;8.990;2024-03-02T00:47:52;12.20;58.10
12769;DHT22;6448;48.916;8.990;2024-03-02T00:48:55;12.20;57.50
12769;DHT22;6448;48.916;8.990;2024-03-02T00:49:56;12.20;57.50
12769;DHT22;6448;48.916;8.990;2024-03-02T00:50:58;12.20;57.40
12769;DHT22;6448;48.916;8.990;2024-03-02T00:51:59;12.20;57.30
12769;DHT22;6448;48.916;8.990;2024-03-02T00:53:01;12.20;57.30
12769;DHT22;6448;48.916;8.990;2024-03-02T00:54:04;12.20;57.30
12769;DHT22;6448;48.916;8.990;2024-03-02T00:55:08;12.20;57.40
12769;DHT22;6448;48.916;8.990;2024-03-02T00:56:11;12.20;57.50
12769;DHT22;6448;48.916;8.990;2024-03-02T00:57:13;12.20;57.50
12769;DHT22;6448;48.916;8.990;2024-03-02T00:58:14;12.20;57.50
12769;DHT22;6448;48.916;8.990;2024-03-02T00:59:15;12.20;57.60
12769;DHT22;6448;48.916;8.990;2024-03-02T01:00:17;12.20;57.60
12769;DHT22;6448;48.916;8.990;2024-03-02T01:01:18;12.20;57.60
12769;DHT22;6448;48.916;8.990;2024-03-02T01:02:21;12.20;57.60
12769;DHT22;6448;48.916;8.990;2024-03-02T01:03:21;12.20;57.50
12769;DHT22;6448;48.916;8.990;2024-03-02T01:04:22;12.20;57.50
12769;DHT22;6448;48.916;8.990;2024-03-02T01:05:24;12.20;57.50
12769;DHT22;6448;48.916;8.990;2024-03-02T01:06:25;12.20;57.50
12769;DHT22;6448;48.916;8.990;2024-03-02T01:07:26;12.20;57.50
12769;DHT22;6448;48.916;8.990;2024-03-02T01:08:28;12.20;57.50
12769;DHT22;6448;48.916;8.990;2024-03-02T01:09:28;12.20;57.40
12769;DHT22;6448;48.916;8.990;2024-03-02T01:10:30;12.20;57.40
12769;DHT22;6448;48.916;8.990;2024-03-02T01:11:32;12.20;57.40
12769;DHT22;6448;48.916;8.990;2024-03-02T01:12:34;12.10;57.40
12769;DHT22;6448;48.916;8.990;2024-03-02T01:13:35;12.20;57.50
12769;DHT22;6448;48.916;8.990;2024-03-02T01:14:37;12.20;57.50
12769;DHT22;6448;48.916;8.990;2024-03-02T01:15:37;12.10;57.50
12769;DHT22;6448;48.916;8.990;2024-03-02T01:16:38;12.10;57.50
12769;DHT22;6448;48.916;8.990;2024-03-02T01:17:40;12.10;57.50
12769;DHT22;6448;48.916;8.990;2024-03-02T01:18:41;12.10;57.50
12769;DHT22;6448;48.916;8.990;2024-03-02T01:19:43;12.10;57.50
12769;DHT22;6448;48.916;8.990;2024-03-02T01:20:44;12.10;57.50
12769;DHT22;6448;48.916;8.990;2024-03-02T01:21:45;12.10;57.50
12769;DHT22;6448;48.916;8.990;2024-03-02T01:22:46;12.30;57.70
12769;DHT22;6448;48.916;8.990;2024-03-02T01:23:47;12.10;57.50
12769;DHT22;6448;48.916;8.990;2024-03-02T01:24:48;12.10;57.50
12769;DHT22;6448;48.916;8.990;2024-03-02T01:25:50;12.10;57.50
12769;DHT22;6448;48.916;8.990;2024-03-02T01:26:52;12.10;57.50
12769;DHT22;6448;48.916;8.990;2024-03-02T01:27:54;12.10;57.40
12769;DHT22;6448;48.916;8.990;2024-03-02T01:28:55;12.10;57.50
12769;DHT22;6448;48.916;8.990;2024-03-02T01:29:56;12.10;57.50
12769;DHT22;6448;48.916;8.990;2024-03-02T01:30:57;12.10;57.40
12769;DHT22;6448;48.916;8.990;2024-03-02T01:31:59;12.00;57.30
12769;DHT22;6448;48.916;8.990;2024-03-02T01:33:00;12.10;57.40
12769;DHT22;6448;48.916;8.990;2024-03-02T01:34:02;12.00;57.30
12769;DHT22;6448;48.916;8.990;2024-03-02T01:35:04;12.00;57.30
12769;DHT22;6448;48.916;8.990;2024-03-02T01:36:06;12.00;57.30
12769;DHT22;6448;48.916;8.990;2024-03-02T01:37:08;12.00;57.30
12769;DHT22;6448;48.916;8.990;2024-03-02T01:38:10;12.00;57.30
12769;DHT22;6448;48.916;8.990;2024-03-02T01:39:11;12.00;57.30
12769;DHT22;6448;48.916;8.990;2024-03-02T01:40:13;12.00;57.30
12769;DHT22;6448;48.916;8.990;2024-03-02T01:41:13;12.00;57.20
12769;DHT22;6448;48.916;8.990;2024-03-02T01:42:17;12.00;57.20
12769;DHT22;6448;48.916;8.990;2024-03-02T01:43:17;12.00;57.20
12769;DHT22;6448;48.916;8.990;2024-03-02T01:44:19;12.00;57.10
12769;DHT22;6448;48.916;8.990;2024-03-02T01:45:20;12.00;57.10
12769;DHT22;6448;48.916;8.990;2024-03-02T01:46:21;12.00;57.10
12769;DHT22;6448;48.916;8.990;2024-03-02T01:47:22;11.90;56.90
12769;DHT22;6448;48.916;8.990;2024-03-02T01:48:23;11.90;56.80
12769;DHT22;6448;48.916;8.990;2024-03-02T01:49:25;11.90;56.80
12769;DHT22;6448;48.916;8.990;2024-03-02T01:50:27;11.90;56.70
12769;DHT22;6448;48.916;8.990;2024-03-02T01:51:28;11.90;56.70
12769;DHT22;6448;48.916;8.990;2024-03-02T01:52:29;11.90;56.60
12769;DHT22;6448;48.916;8.990;2024-03-02T01:53:31;11.90;56.60
12769;DHT22;6448;48.916;8.990;2024-03-02T01:54:32;11.80;56.50
12769;DHT22;6448;48.916;8.990;2024-03-02T01:55:35;11.80;56.60
12769;DHT22;6448;48.916;8.990;2024-03-02T01:56:35;11.80;56.70
12769;DHT22;6448;48.916;8.990;2024-03-02T01:57:38;11.80;56.70
12769;DHT22;6448;48.916;8.990;2024-03-02T01:58:39;11.80;56.70
12769;DHT22;6448;48.916;8.990;2024-03-02T01:59:41;11.70;56.60
12769;DHT22;6448;48.916;8.990;2024-03-02T02:00:42;11.70;56.60
12769;DHT22;6448;48.916;8.990;2024-03-02T02:01:45;11.70;56.70
12769;DHT22;6448;48.916;8.990;2024-03-02T02:02:46;11.70;56.90
12769;DHT22;6448;48.916;8.990;2024-03-02T02:03:48;11.70;56.90
12769;DHT22;6448;48.916;8.990;2024-03-02T02:04:49;11.70;56.90
12769;DHT22;6448;48.916;8.990;2024-03-02T02:05:51;11.70;57.00
12769;DHT22;6448;48.916;8.990;2024-03-02T02:06:51;11.70;57.00
12769;DHT22;6448;48.916;8.990;2024-03-02T02:07:53;11.60;57.00
12769;DHT22;6448;48.916;8.990;2024-03-02T02:08:54;11.60;57.00
12769;DHT22;6448;48.916;8.990;2024-03-02T02:09:56;11.60;57.00
12769;DHT22;6448;48.916;8.990;2024-03-02T02:10:56;11.60;57.00
12769;DHT22;6448;48.916;8.990;2024-03-02T02:11:58;11.60;56.90
12769;DHT22;6448;48.916;8.990;2024-03-02T02:13:01;11.60;56.90
12769;DHT22;6448;48.916;8.990;2024-03-02T02:14:03;11.60;56.90
12769;DHT22;6448;48.916;8.990;2024-03-02T02:15:04;11.60;56.90
12769;DHT22;6448;48.916;8.990;2024-03-02T02:16:22;11.60;56.90
12769;DHT22;6448;48.916;8.990;2024-03-02T02:17:23;11.60;57.00
12769;DHT22;6448;48.916;8.990;2024-03-02T02:18:25;11.60;57.00
12769;DHT22;6448;48.916;8.990;2024-03-02T02:19:56;11.60;57.00
12769;DHT22;6448;48.916;8.990;2024-03-02T02:20:58;11.50;57.00
12769;DHT22;6448;48.916;8.990;2024-03-02T02:22:00;11.50;57.10
12769;DHT22;6448;48.916;8.990;2024-03-02T02:23:02;11.50;57.00
12769;DHT22;6448;48.916;8.990;2024-03-02T02:24:04;11.50;57.00
12769;DHT22;6448;48.916;8.990;2024-03-02T02:25:06;11.50;56.90
12769;DHT22;6448;48.916;8.990;2024-03-02T02:26:07;11.50;56.80
12769;DHT22;6448;48.916;8.990;2024-03-02T02:27:08;11.50;56.70
12769;DHT22;6448;48.916;8.990;2024-03-02T02:28:10;11.50;56.60
12769;DHT22;6448;48.916;8.990;2024-03-02T02:29:12;11.40;56.30
12769;DHT22;6448;48.916;8.990;2024-03-02T02:30:13;11.40;56.20
12769;DHT22;6448;48.916;8.990;2024-03-02T02:31:14;11.40;56.10
12769;DHT22;6448;48.916;8.990;2024-03-02T02:32:16;11.30;56.00
12769;DHT22;6448;48.916;8.990;2024-03-02T02:33:18;11.30;56.10
12769;DHT22;6448;48.916;8.990;2024-03-02T02:34:19;11.30;56.10
12769;DHT22;6448;48.916;8.990;2024-03-02T02:35:20;11.30;56.20
12769;DHT22;6448;48.916;8.990;2024-03-02T02:36:22;11.20;56.30
12769;DHT22;6448;48.916;8.990;2024-03-02T02:37:24;11.20;56.40
12769;DHT22;6448;48.916;8.990;2024-03-02T02:38:26;11.20;56.40
12769;DHT22;6448;48.916;8.990;2024-03-02T02:39:26;11.20;56.40
12769;DHT22;6448;48.916;8.990;2024-03-02T02:40:28;11.20;56.50
12769;DHT22;6448;48.916;8.990;2024-03-02T02:41:31;11.20;56.60
12769;DHT22;6448;48.916;8.990;2024-03-02T02:42:32;11.10;56.50
12769;DHT22;6448;48.916;8.990;2024-03-02T02:43:33;11.10;56.50
12769;DHT22;6448;48.916;8.990;2024-03-02T02:44:35;11.10;56.50
12769;DHT22;6448;48.916;8.990;2024-03-02T02:45:38;11.10;56.40
12769;DHT22;6448;48.916;8.990;2024-03-02T02:46:40;11.10;56.50
12769;DHT22;6448;48.916;8.990;2024-03-02T02:47:41;11.10;56.60
12769;DHT22;6448;48.916;8.990;2024-03-02T02:48:42;11.10;56.50
12769;DHT22;6448;48.916;8.990;2024-03-02T02:49:43;11.10;56.60
12769;DHT22;6448;48.916;8.990;2024-03-02T02:50:45;11.10;56.60
12769;DHT22;6448;48.916;8.990;2024-03-02T02:51:46;11.10;56.70
12769;DHT22;6448;48.916;8.990;2024-03-02T02:52:49;11.10;56.70
12769;DHT22;6448;48.916;8.990;2024-03-02T02:53:51;11.00;56.60
12769;DHT22;6448;48.916;8.990;2024-03-02T02:54:52;11.10;56.70
12769;DHT22;6448;48.916;8.990;2024-03-02T02:55:53;11.00;56.70
12769;DHT22;6448;48.916;8.990;2024-03-02T02:56:54;11.00;56.80
12769;DHT22;6448;48.916;8.990;2024-03-02T02:57:56;11.00;56.90
12769;DHT22;6448;48.916;8.990;2024-03-02T02:58:57;11.00;56.90
12769;DHT22;6448;48.916;8.990;2024-03-02T02:59:59;11.00;56.90
12769;DHT22;6448;48.916;8.990;2024-03-02T03:00:59;11.00;57.00
12769;DHT22;6448;48.916;8.990;2024-03-02T03:02:06;11.00;57.00
12769;DHT22;6448;48.916;8.990;2024-03-02T03:03:07;11.00;57.00
12769;DHT22;6448;48.916;8.990;2024-03-02T03:04:08;11.00;57.10
12769;DHT22;6448;48.916;8.990;2024-03-02T03:05:10;11.00;57.10
12769;DHT22;6448;48.916;8.990;2024-03-02T03:06:11;11.00;57.10
12769;DHT22;6448;48.916;8.990;2024-03-02T03:07:13;11.00;57.10
12769;DHT22;6448;48.916;8.990;2024-03-02T03:08:15;11.00;57.10
12769;DHT22;6448;48.916;8.990;2024-03-02T03:09:17;11.00;57.10
12769;DHT22;6448;48.916;8.990;2024-03-02T03:10:18;11.00;57.10
12769;DHT22;6448;48.916;8.990;2024-03-02T03:11:22;11.00;57.10
12769;DHT22;6448;48.916;8.990;2024-03-02T03:12:25;11.00;57.10
12769;DHT22;6448;48.916;8.990;2024-03-02T03:13:26;11.00;57.10
12769;DHT22;6448;48.916;8.990;2024-03-02T03:14:27;11.00;57.10
12769;DHT22;6448;48.916;8.990;2024-03-02T03:15:28;11.00;57.20
12769;DHT22;6448;48.916;8.990;2024-03-02T03:16:30;11.00;57.20
12769;DHT22;6448;48.916;8.990;2024-03-02T03:17:31;11.00;57.30
12769;DHT22;6448;48.916;8.990;2024-03-02T03:18:31;11.00;57.30
12769;DHT22;6448;48.916;8.990;2024-03-02T03:19:33;11.00;57.30
12769;DHT22;6448;48.916;8.990;2024-03-02T03:20:34;11.00;57.30
12769;DHT22;6448;48.916;8.990;2024-03-02T03:21:36;11.00;57.30
12769;DHT22;6448;48.916;8.990;2024-03-02T03:22:36;11.00;57.30
12769;DHT22;6448;48.916;8.990;2024-03-02T03:23:39;11.00;57.30
12769;DHT22;6448;48.916;8.990;2024-03-02T03:24:40;11.00;57.20
12769;DHT22;6448;48.916;8.990;2024-03-02T03:25:42;11.00;57.20
12769;DHT22;6448;48.916;8.990;2024-03-02T03:26:43;11.00;57.20
12769;DHT22;6448;48.916;8.990;2024-03-02T03:27:45;11.00;57.20
12769;DHT22;6448;48.916;8.990;2024-03-02T03:28:46;11.00;57.20
12769;DHT22;6448;48.916;8.990;2024-03-02T03:29:48;11.00;57.20
12769;DHT22;6448;48.916;8.990;2024-03-02T03:30:48;10.90;57.10
12769;DHT22;6448;48.916;8.990;2024-03-02T03:31:50;10.90;57.10
12769;DHT22;6448;48.916;8.990;2024-03-02T03:32:51;10.90;57.00
12769;DHT22;6448;48.916;8.990;2024-03-02T03:33:53;10.90;56.90
12769;DHT22;6448;48.916;8.990;2024-03-02T03:34:54;10.90;56.90
12769;DHT22;6448;48.916;8.990;2024-03-02T03:35:55;10.90;56.90
12769;DHT22;6448;48.916;8.990;2024-03-02T03:36:56;10.90;57.00
12769;DHT22;6448;48.916;8.990;2024-03-02T03:37:58;10.90;57.00
12769;DHT22;6448;48.916;8.990;2024-03-02T03:39:00;10.90;57.00
12769;DHT22;6448;48.916;8.990;2024-03-02T03:40:04;10.90;57.00
12769;DHT22;6448;48.916;8.990;2024-03-02T03:41:10;10.90;57.10
12769;DHT22;6448;48.916;8.990;2024-03-02T03:42:12;10.90;57.10
12769;DHT22;6448;48.916;8.990;2024-03-02T03:43:12;10.90;57.10
12769;DHT22;6448;48.916;8.990;2024-03-02T03:44:14;10.90;57.10
12769;DHT22;6448;48.916;8.990;2024-03-02T03:45:15;10.90;57.10
12769;DHT22;6448;48.916;8.990;2024-03-02T03:46:16;10.90;57.10
12769;DHT22;6448;48.916;8.990;2024-03-02T03:47:18;10.90;57.20
12769;DHT22;6448;48.916;8.990;2024-03-02T03:48:18;10.90;57.20
12769;DHT22;6448;48.916;8.990;2024-03-02T03:49:20;10.90;57.20
12769;DHT22;6448;48.916;8.990;2024-03-02T03:50:21;10.90;57.10
12769;DHT22;6448;48.916;8.990;2024-03-02T03:51:22;10.90;57.10
12769;DHT22;6448;48.916;8.990;2024-03-02T03:52:23;10.90;57.10
12769;DHT22;6448;48.916;8.990;2024-03-02T03:53:24;10.90;57.10
12769;DHT22;6448;48.916;8.990;2024-03-02T03:54:27;10.90;57.10
12769;DHT22;6448;48.916;8.990;2024-03-02T03:55:29;10.90;57.70
12769;DHT22;6448;48.916;8.990;2024-03-02T03:56:29;10.90;57.10
12769;DHT22;6448;48.916;8.990;2024-03-02T03:57:31;10.90;57.00
12769;DHT22;6448;48.916;8.990;2024-03-02T03:58:32;10.90;56.90
12769;DHT22;6448;48.916;8.990;2024-03-02T03:59:34;10.90;56.80
12769;DHT22;6448;48.916;8.990;2024-03-02T04:00:35;10.90;56.80
12769;DHT22;6448;48.916;8.990;2024-03-02T04:01:35;10.90;56.70
12769;DHT22;6448;48.916;8.990;2024-03-02T04:02:37;10.80;56.70
12769;DHT22;6448;48.916;8.990;2024-03-02T04:03:39;10.80;56.70
12769;DHT22;6448;48.916;8.990;2024-03-02T04:04:40;10.80;56.70
12769;DHT22;6448;48.916;8.990;2024-03-02T04:05:41;10.90;56.80
12769;DHT22;6448;48.916;8.990;2024-03-02T04:06:43;10.80;57.40
12769;DHT22;6448;48.916;8.990;2024-03-02T04:07:44;10.80;56.70
12769;DHT22;6448;48.916;8.990;2024-03-02T04:08:45;10.80;56.70
12769;DHT22;6448;48.916;8.990;2024-03-02T04:09:47;10.80;56.70
12769;DHT22;6448;48.916;8.990;2024-03-02T04:10:48;10.80;56.70
12769;DHT22;6448;48.916;8.990;2024-03-02T04:11:50;10.80;56.70
12769;DHT22;6448;48.916;8.990;2024-03-02T04:12:51;10.80;56.80
12769;DHT22;6448;48.916;8.990;2024-03-02T04:13:52;10.70;56.70
12769;DHT22;6448;48.916;8.990;2024-03-02T04:14:53;10.80;56.70
12769;DHT22;6448;48.916;8.990;2024-03-02T04:15:54;10.70;56.70
12769;DHT22;6448;48.916;8.990;2024-03-02T04:16:56;10.70;56.70
12769;DHT22;6448;48.916;8.990;2024-03-02T04:17:56;10.70;56.60
12769;DHT22;6448;48.916;8.990;2024-03-02T04:18:57;10.70;56.60
12769;DHT22;6448;48.916;8.990;2024-03-02T04:19:59;10.70;56.70
12769;DHT22;6448;48.916;8.990;2024-03-02T04:21:00;10.70;56.70
12769;DHT22;6448;48.916;8.990;2024-03-02T04:22:02;10.70;56.80
12769;DHT22;6448;48.916;8.990;2024-03-02T04:23:03;10.70;56.80
12769;DHT22;6448;48.916;8.990;2024-03-02T04:24:05;10.70;56.80
12769;DHT22;6448;48.916;8.990;2024-03-02T04:25:08;10.70;56.80
12769;DHT22;6448;48.916;8.990;2024-03-02T04:26:10;10.70;56.90
12769;DHT22;6448;48.916;8.990;2024-03-02T04:27:10;10.70;57.50
12769;DHT22;6448;48.916;8.990;2024-03-02T04:28:11;10.70;56.80
12769;DHT22;6448;48.916;8.990;2024-03-02T04:29:13;10.70;56.80
12769;DHT22;6448;48.916;8.990;2024-03-02T04:30:14;10.70;56.80
12769;DHT22;6448;48.916;8.990;2024-03-02T04:31:16;10.60;56.80
12769;DHT22;6448;48.916;8.990;2024-03-02T04:32:17;10.70;56.90
12769;DHT22;6448;48.916;8.990;2024-03-02T04:33:17;10.60;56.80
12769;DHT22;6448;48.916;8.990;2024-03-02T04:34:19;10.60;56.80
12769;DHT22;6448;48.916;8.990;2024-03-02T04:35:20;10.60;56.80
12769;DHT22;6448;48.916;8.990;2024-03-02T04:36:24;10.60;56.80
12769;DHT22;6448;48.916;8.990;2024-03-02T04:37:25;10.60;56.80
12769;DHT22;6448;48.916;8.990;2024-03-02T04:38:26;10.60;56.80
12769;DHT22;6448;48.916;8.990;2024-03-02T04:39:29;10.60;56.80
12769;DHT22;6448;48.916;8.990;2024-03-02T04:40:31;10.60;56.80
12769;DHT22;6448;48.916;8.990;2024-03-02T04:41:33;10.70;56.90
12769;DHT22;6448;48.916;8.990;2024-03-02T04:42:34;10.60;56.90
12769;DHT22;6448;48.916;8.990;2024-03-02T04:43:36;10.60;56.90
12769;DHT22;6448;48.916;8.990;2024-03-02T04:44:36;10.60;56.90
12769;DHT22;6448;48.916;8.990;2024-03-02T04:45:38;10.50;56.90
12769;DHT22;6448;48.916;8.990;2024-03-02T04:46:39;10.50;56.90
12769;DHT22;6448;48.916;8.990;2024-03-02T04:47:40;10.50;56.90
12769;DHT22;6448;48.916;8.990;2024-03-02T04:48:42;10.50;57.00
12769;DHT22;6448;48.916;8.990;2024-03-02T04:49:42;10.50;57.00
12769;DHT22;6448;48.916;8.990;2024-03-02T04:50:44;10.50;57.00
12769;DHT22;6448;48.916;8.990;2024-03-02T04:51:45;10.50;57.10
12769;DHT22;6448;48.916;8.990;2024-03-02T04:52:46;10.50;57.20
12769;DHT22;6448;48.916;8.990;2024-03-02T04:53:48;10.50;57.20
12769;DHT22;6448;48.916;8.990;2024-03-02T04:54:48;10.50;57.20
12769;DHT22;6448;48.916;8.990;2024-03-02T04:56:09;10.50;57.20
12769;DHT22;6448;48.916;8.990;2024-03-02T04:57:25;10.50;57.20
12769;DHT22;6448;48.916;8.990;2024-03-02T04:58:26;10.50;57.20
12769;DHT22;6448;48.916;8.990;2024-03-02T04:59:27;10.50;57.20
12769;DHT22;6448;48.916;8.990;2024-03-02T05:00:29;10.50;57.20
12769;DHT22;6448;48.916;8.990;2024-03-02T05:01:30;10.50;57.20
12769;DHT22;6448;48.916;8.990;2024-03-02T05:02:30;10.50;57.20
12769;DHT22;6448;48.916;8.990;2024-03-02T05:03:32;10.50;57.10
12769;DHT22;6448;48.916;8.990;2024-03-02T05:04:35;10.50;57.10
12769;DHT22;6448;48.916;8.990;2024-03-02T05:05:37;10.50;57.10
12769;DHT22;6448;48.916;8.990;2024-03-02T05:06:39;10.40;57.00
12769;DHT22;6448;48.916;8.990;2024-03-02T05:07:42;10.40;57.00
12769;DHT22;6448;48.916;8.990;2024-03-02T05:08:44;10.40;57.00
12769;DHT22;6448;48.916;8.990;2024-03-02T05:09:46;10.40;57.00
12769;DHT22;6448;48.916;8.990;2024-03-02T05:10:48;10.40;57.00
12769;DHT22;6448;48.916;8.990;2024-03-02T05:11:51;10.40;57.10
12769;DHT22;6448;48.916;8.990;2024-03-02T05:13:23;10.40;57.10
12769;DHT22;6448;48.916;8.990;2024-03-02T05:14:24;10.40;57.10
12769;DHT22;6448;48.916;8.990;2024-03-02T05:15:25;10.40;57.10
12769;DHT22;6448;48.916;8.990;2024-03-02T05:16:26;10.40;57.10
12769;DHT22;6448;48.916;8.990;2024-03-02T05:17:27;10.40;57.10
12769;DHT22;6448;48.916;8.990;2024-03-02T05:18:29;10.30;57.70
12769;DHT22;6448;48.916;8.990;2024-03-02T05:19:29;10.40;57.20
12769;DHT22;6448;48.916;8.990;2024-03-02T05:20:31;10.40;57.40
12769;DHT22;6448;48.916;8.990;2024-03-02T05:21:32;10.30;57.30
12769;DHT22;6448;48.916;8.990;2024-03-02T05:22:33;10.30;57.40
12769;DHT22;6448;48.916;8.990;2024-03-02T05:23:34;10.30;57.50
12769;DHT22;6448;48.916;8.990;2024-03-02T05:24:35;10.30;57.50
12769;DHT22;6448;48.916;8.990;2024-03-02T05:25:37;10.30;57.70
12769;DHT22;6448;48.916;8.990;2024-03-02T05:26:38;10.30;57.70
12769;DHT22;6448;48.916;8.990;2024-03-02T05:27:41;10.30;57.80
12769;DHT22;6448;48.916;8.990;2024-03-02T05:28:41;10.30;57.90
12769;DHT22;6448;48.916;8.990;2024-03-02T05:29:43;10.30;57.90
12769;DHT22;6448;48.916;8.990;2024-03-02T05:30:44;10.30;58.00
12769;DHT22;6448;48.916;8.990;2024-03-02T05:31:46;10.30;57.90
12769;DHT22;6448;48.916;8.990;2024-03-02T05:32:47;10.30;57.90
12769;DHT22;6448;48.916;8.990;2024-03-02T05:33:49;10.30;57.90
12769;DHT22;6448;48.916;8.990;2024-03-02T05:34:50;10.30;58.00
12769;DHT22;6448;48.916;8.990;2024-03-02T05:35:52;10.30;58.00
12769;DHT22;6448;48.916;8.990;2024-03-02T05:36:52;10.30;58.00
12769;DHT22;6448;48.916;8.990;2024-03-02T05:37:54;10.30;58.10
12769;DHT22;6448;48.916;8.990;2024-03-02T05:38:55;10.30;58.20
12769;DHT22;6448;48.916;8.990;2024-03-02T05:40:01;10.30;58.10
12769;DHT22;6448;48.916;8.990;2024-03-02T05:41:02;10.30;58.20
12769;DHT22;6448;48.916;8.990;2024-03-02T05:42:04;10.30;58.20
12769;DHT22;6448;48.916;8.990;2024-03-02T05:43:06;10.30;58.20
12769;DHT22;6448;48.916;8.990;2024-03-02T05:44:08;10.30;58.30
12769;DHT22;6448;48.916;8.990;2024-03-02T05:45:09;10.30;58.30
12769;DHT22;6448;48.916;8.990;2024-03-02T05:46:11;10.30;58.30
12769;DHT22;6448;48.916;8.990;2024-03-02T05:47:12;10.30;58.30
12769;DHT22;6448;48.916;8.990;2024-03-02T05:48:13;10.30;58.40
12769;DHT22;6448;48.916;8.990;2024-03-02T05:49:14;10.30;58.40
12769;DHT22;6448;48.916;8.990;2024-03-02T05:50:15;10.30;58.40
12769;DHT22;6448;48.916;8.990;2024-03-02T05:51:16;10.30;58.30
12769;DHT22;6448;48.916;8.990;2024-03-02T05:52:18;10.30;58.40
12769;DHT22;6448;48.916;8.990;2024-03-02T05:53:18;10.30;58.40
12769;DHT22;6448;48.916;8.990;2024-03-02T05:54:19;10.30;58.40
12769;DHT22;6448;48.916;8.990;2024-03-02T05:55:21;10.30;58.50
12769;DHT22;6448;48.916;8.990;2024-03-02T05:56:22;10.30;58.50
12769;DHT22;6448;48.916;8.990;2024-03-02T05:57:23;10.30;58.50
12769;DHT22;6448;48.916;8.990;2024-03-02T05:58:40;10.30;58.50
12769;DHT22;6448;48.916;8.990;2024-03-02T05:59:54;10.30;58.50
12769;DHT22;6448;48.916;8.990;2024-03-02T06:00:54;10.30;58.50
12769;DHT22;6448;48.916;8.990;2024-03-02T06:01:56;10.30;58.50
12769;DHT22;6448;48.916;8.990;2024-03-02T06:02:57;10.20;58.50
12769;DHT22;6448;48.916;8.990;2024-03-02T06:03:58;10.30;58.50
12769;DHT22;6448;48.916;8.990;2024-03-02T06:05:00;10.30;58.60
12769;DHT22;6448;48.916;8.990;2024-03-02T06:06:01;10.30;58.70
12769;DHT22;6448;48.916;8.990;2024-03-02T06:07:02;10.30;58.70
12769;DHT22;6448;48.916;8.990;2024-03-02T06:08:04;10.30;58.70
12769;DHT22;6448;48.916;8.990;2024-03-02T06:09:06;10.30;58.70
12769;DHT22;6448;48.916;8.990;2024-03-02T06:10:08;10.30;58.70
12769;DHT22;6448;48.916;8.990;2024-03-02T06:11:11;10.30;58.70
12769;DHT22;6448;48.916;8.990;2024-03-02T06:12:12;10.30;58.70
12769;DHT22;6448;48.916;8.990;2024-03-02T06:13:14;10.30;58.70
12769;DHT22;6448;48.916;8.990;2024-03-02T06:14:16;10.30;58.70
12769;DHT22;6448;48.916;8.990;2024-03-02T06:15:17;10.30;59.30
12769;DHT22;6448;48.916;8.990;2024-03-02T06:16:19;10.30;58.70
12769;DHT22;6448;48.916;8.990;2024-03-02T06:17:21;10.30;58.80
12769;DHT22;6448;48.916;8.990;2024-03-02T06:18:21;10.30;58.80
12769;DHT22;6448;48.916;8.990;2024-03-02T06:19:23;10.30;58.80
12769;DHT22;6448;48.916;8.990;2024-03-02T06:20:24;10.30;58.80
12769;DHT22;6448;48.916;8.990;2024-03-02T06:21:28;10.30;58.90
12769;DHT22;6448;48.916;8.990;2024-03-02T06:22:28;10.30;58.90
12769;DHT22;6448;48.916;8.990;2024-03-02T06:23:30;10.30;58.90
12769;DHT22;6448;48.916;8.990;2024-03-02T06:24:31;10.30;58.90
12769;DHT22;6448;48.916;8.990;2024-03-02T06:25:33;10.30;58.90
12769;DHT22;6448;48.916;8.990;2024-03-02T06:26:34;10.30;58.90
12769;DHT22;6448;48.916;8.990;2024-03-02T06:27:35;10.30;58.90
12769;DHT22;6448;48.916;8.990;2024-03-02T06:28:36;10.30;58.90
12769;DHT22;6448;48.916;8.990;2024-03-02T06:29:40;10.30;58.90
12769;DHT22;6448;48.916;8.990;2024-03-02T06:30:41;10.50;59.00
12769;DHT22;6448;48.916;8.990;2024-03-02T06:31:42;10.30;58.90
12769;DHT22;6448;48.916;8.990;2024-03-02T06:32:44;10.30;58.90
12769;DHT22;6448;48.916;8.990;2024-03-02T06:33:45;10.30;58.90
12769;DHT22;6448;48.916;8.990;2024-03-02T06:34:47;10.30;59.00
12769;DHT22;6448;48.916;8.990;2024-03-02T06:35:47;10.30;59.10
12769;DHT22;6448;48.916;8.990;2024-03-02T06:36:49;10.30;59.10
12769;DHT22;6448;48.916;8.990;2024-03-02T06:37:50;10.30;59.20
12769;DHT22;6448;48.916;8.990;2024-03-02T06:38:52;10.30;59.20